sensor_id;sensor_type;location;lat;lon;timestamp;P1;durP1;ratioP1;P2;durP2;ratioP2
67930;SDS011;63902;52.000;5.954;2023-05-07T00:00:49;11.10;;;4.82;;
67930;SDS011;63902;52.000;5.954;2023-05-07T00:01:50;10.23;;;5.32;;
67930;SDS011;63902;52.000;5.954;2023-05-07T00:02:51;7.10;;;5.15;;
67930;SDS011;63902;52.000;5.954;2023-05-07T00:03:51;8.73;;;5.43;;
67930;SDS011;63902;52.000;5.954;2023-05-07T00:04:52;6.47;;;5.40;;
67930;SDS011;63902;52.000;5.954;2023-05-07T00:05:52;9.63;;;5.65;;
67930;SDS011;63902;52.000;5.954;2023-05-07T00:06:53;7.25;;;5.28;;
67930;SDS011;63902;52.000;5.954;2023-05-07T00:07:53;10.95;;;5.40;;
67930;SDS011;63902;52.000;5.954;2023-05-07T00:08:54;8.90;;;5.35;;
67930;SDS011;63902;52.000;5.954;2023-05-07T00:09:54;7.32;;;4.70;;
67930;SDS011;63902;52.000;5.954;2023-05-07T00:10:55;9.52;;;4.68;;
67930;SDS011;63902;52.000;5.954;2023-05-07T00:11:55;7.72;;;5.00;;
67930;SDS011;63902;52.000;5.954;2023-05-07T00:12:56;10.60;;;5.40;;
67930;SDS011;63902;52.000;5.954;2023-05-07T00:13:56;9.55;;;5.50;;
67930;SDS011;63902;52.000;5.954;2023-05-07T00:14:57;10.43;;;5.30;;
67930;SDS011;63902;52.000;5.954;2023-05-07T00:15:58;7.82;;;5.03;;
67930;SDS011;63902;52.000;5.954;2023-05-07T00:16:59;7.20;;;4.95;;
67930;SDS011;63902;52.000;5.954;2023-05-07T00:18:00;8.02;;;5.70;;
67930;SDS011;63902;52.000;5.954;2023-05-07T00:19:01;9.23;;;5.65;;
67930;SDS011;63902;52.000;5.954;2023-05-07T00:20:01;8.70;;;5.60;;
67930;SDS011;63902;52.000;5.954;2023-05-07T00:21:02;8.00;;;5.88;;
67930;SDS011;63902;52.000;5.954;2023-05-07T00:22:03;8.02;;;5.05;;
67930;SDS011;63902;52.000;5.954;2023-05-07T00:23:03;9.20;;;5.82;;
67930;SDS011;63902;52.000;5.954;2023-05-07T00:24:04;7.20;;;5.35;;
67930;SDS011;63902;52.000;5.954;2023-05-07T00:25:05;8.35;;;5.55;;
67930;SDS011;63902;52.000;5.954;2023-05-07T00:26:06;9.73;;;6.07;;
67930;SDS011;63902;52.000;5.954;2023-05-07T00:27:06;10.38;;;5.63;;
67930;SDS011;63902;52.000;5.954;2023-05-07T00:28:07;8.20;;;6.20;;
67930;SDS011;63902;52.000;5.954;2023-05-07T00:29:07;8.02;;;5.97;;
67930;SDS011;63902;52.000;5.954;2023-05-07T00:30:08;15.88;;;6.13;;
67930;SDS011;63902;52.000;5.954;2023-05-07T00:31:09;10.00;;;5.75;;
67930;SDS011;63902;52.000;5.954;2023-05-07T00:32:11;9.32;;;5.93;;
67930;SDS011;63902;52.000;5.954;2023-05-07T00:33:11;7.88;;;5.65;;
67930;SDS011;63902;52.000;5.954;2023-05-07T00:34:12;10.10;;;5.88;;
67930;SDS011;63902;52.000;5.954;2023-05-07T00:35:12;9.57;;;6.15;;
67930;SDS011;63902;52.000;5.954;2023-05-07T00:36:13;13.93;;;5.63;;
67930;SDS011;63902;52.000;5.954;2023-05-07T00:37:13;10.13;;;5.28;;
67930;SDS011;63902;52.000;5.954;2023-05-07T00:38:14;8.35;;;5.85;;
67930;SDS011;63902;52.000;5.954;2023-05-07T00:39:14;8.93;;;5.80;;
67930;SDS011;63902;52.000;5.954;2023-05-07T00:40:15;9.52;;;5.82;;
67930;SDS011;63902;52.000;5.954;2023-05-07T00:41:16;10.07;;;5.50;;
67930;SDS011;63902;52.000;5.954;2023-05-07T00:42:16;11.55;;;6.00;;
67930;SDS011;63902;52.000;5.954;2023-05-07T00:43:17;10.32;;;5.35;;
67930;SDS011;63902;52.000;5.954;2023-05-07T00:44:17;9.85;;;6.00;;
67930;SDS011;63902;52.000;5.954;2023-05-07T00:45:18;6.85;;;5.38;;
67930;SDS011;63902;52.000;5.954;2023-05-07T00:46:18;8.48;;;5.57;;
67930;SDS011;63902;52.000;5.954;2023-05-07T00:47:22;9.63;;;6.07;;
67930;SDS011;63902;52.000;5.954;2023-05-07T00:48:22;11.40;;;6.13;;
67930;SDS011;63902;52.000;5.954;2023-05-07T00:49:23;8.35;;;5.63;;
67930;SDS011;63902;52.000;5.954;2023-05-07T00:50:31;9.63;;;6.13;;
67930;SDS011;63902;52.000;5.954;2023-05-07T00:51:32;10.77;;;5.78;;
67930;SDS011;63902;52.000;5.954;2023-05-07T00:52:33;8.82;;;5.80;;
67930;SDS011;63902;52.000;5.954;2023-05-07T00:53:34;8.90;;;5.78;;
67930;SDS011;63902;52.000;5.954;2023-05-07T00:54:35;7.78;;;5.70;;
67930;SDS011;63902;52.000;5.954;2023-05-07T00:55:36;11.93;;;5.60;;
67930;SDS011;63902;52.000;5.954;2023-05-07T00:56:36;7.03;;;5.97;;
67930;SDS011;63902;52.000;5.954;2023-05-07T00:57:37;12.25;;;5.85;;
67930;SDS011;63902;52.000;5.954;2023-05-07T00:58:40;10.77;;;5.70;;
67930;SDS011;63902;52.000;5.954;2023-05-07T00:59:40;13.02;;;5.47;;
67930;SDS011;63902;52.000;5.954;2023-05-07T01:00:41;8.65;;;5.75;;
67930;SDS011;63902;52.000;5.954;2023-05-07T01:01:42;9.50;;;5.68;;
67930;SDS011;63902;52.000;5.954;2023-05-07T01:02:44;8.23;;;5.80;;
67930;SDS011;63902;52.000;5.954;2023-05-07T01:03:44;9.15;;;5.70;;
67930;SDS011;63902;52.000;5.954;2023-05-07T01:04:45;11.25;;;6.07;;
67930;SDS011;63902;52.000;5.954;2023-05-07T01:05:45;10.40;;;5.68;;
67930;SDS011;63902;52.000;5.954;2023-05-07T01:06:47;10.90;;;6.28;;
67930;SDS011;63902;52.000;5.954;2023-05-07T01:07:49;9.02;;;5.65;;
67930;SDS011;63902;52.000;5.954;2023-05-07T01:08:51;9.95;;;5.68;;
67930;SDS011;63902;52.000;5.954;2023-05-07T01:09:52;7.57;;;5.70;;
67930;SDS011;63902;52.000;5.954;2023-05-07T01:10:53;7.78;;;5.55;;
67930;SDS011;63902;52.000;5.954;2023-05-07T01:11:54;9.25;;;6.15;;
67930;SDS011;63902;52.000;5.954;2023-05-07T01:12:57;8.43;;;6.20;;
67930;SDS011;63902;52.000;5.954;2023-05-07T01:13:58;8.95;;;6.68;;
67930;SDS011;63902;52.000;5.954;2023-05-07T01:15:00;11.73;;;6.47;;
67930;SDS011;63902;52.000;5.954;2023-05-07T01:16:00;9.90;;;7.38;;
67930;SDS011;63902;52.000;5.954;2023-05-07T01:17:01;8.48;;;6.28;;
67930;SDS011;63902;52.000;5.954;2023-05-07T01:18:03;10.10;;;6.90;;
67930;SDS011;63902;52.000;5.954;2023-05-07T01:19:04;10.02;;;6.68;;
67930;SDS011;63902;52.000;5.954;2023-05-07T01:20:05;10.07;;;6.30;;
67930;SDS011;63902;52.000;5.954;2023-05-07T01:21:07;8.57;;;6.40;;
67930;SDS011;63902;52.000;5.954;2023-05-07T01:22:11;9.10;;;6.70;;
67930;SDS011;63902;52.000;5.954;2023-05-07T01:23:12;9.57;;;6.18;;
67930;SDS011;63902;52.000;5.954;2023-05-07T01:24:13;10.20;;;6.75;;
67930;SDS011;63902;52.000;5.954;2023-05-07T01:25:14;10.40;;;6.28;;
67930;SDS011;63902;52.000;5.954;2023-05-07T01:26:15;8.10;;;6.40;;
67930;SDS011;63902;52.000;5.954;2023-05-07T01:27:15;10.40;;;5.78;;
67930;SDS011;63902;52.000;5.954;2023-05-07T01:28:16;11.07;;;6.05;;
67930;SDS011;63902;52.000;5.954;2023-05-07T01:29:16;9.73;;;6.80;;
67930;SDS011;63902;52.000;5.954;2023-05-07T01:30:17;7.78;;;6.05;;
67930;SDS011;63902;52.000;5.954;2023-05-07T01:31:20;14.40;;;6.88;;
67930;SDS011;63902;52.000;5.954;2023-05-07T01:32:26;9.23;;;5.95;;
67930;SDS011;63902;52.000;5.954;2023-05-07T01:33:33;8.65;;;5.93;;
67930;SDS011;63902;52.000;5.954;2023-05-07T01:34:36;10.88;;;6.30;;
67930;SDS011;63902;52.000;5.954;2023-05-07T01:35:39;10.10;;;6.50;;
67930;SDS011;63902;52.000;5.954;2023-05-07T01:36:42;9.15;;;6.25;;
67930;SDS011;63902;52.000;5.954;2023-05-07T01:37:44;14.00;;;6.97;;
67930;SDS011;63902;52.000;5.954;2023-05-07T01:38:47;9.57;;;7.13;;
67930;SDS011;63902;52.000;5.954;2023-05-07T01:39:48;11.95;;;6.50;;
67930;SDS011;63902;52.000;5.954;2023-05-07T01:40:48;9.13;;;6.50;;
67930;SDS011;63902;52.000;5.954;2023-05-07T01:41:49;11.25;;;7.65;;
67930;SDS011;63902;52.000;5.954;2023-05-07T01:42:50;9.10;;;7.07;;
67930;SDS011;63902;52.000;5.954;2023-05-07T01:43:51;9.68;;;7.18;;
67930;SDS011;63902;52.000;5.954;2023-05-07T01:44:52;10.45;;;7.18;;
67930;SDS011;63902;52.000;5.954;2023-05-07T01:45:52;13.07;;;7.00;;
67930;SDS011;63902;52.000;5.954;2023-05-07T01:46:54;11.70;;;6.97;;
67930;SDS011;63902;52.000;5.954;2023-05-07T01:47:54;15.85;;;7.90;;
67930;SDS011;63902;52.000;5.954;2023-05-07T01:48:55;11.75;;;7.50;;
67930;SDS011;63902;52.000;5.954;2023-05-07T01:49:56;9.60;;;7.45;;
67930;SDS011;63902;52.000;5.954;2023-05-07T01:50:57;9.05;;;6.95;;
67930;SDS011;63902;52.000;5.954;2023-05-07T01:51:58;11.20;;;7.13;;
67930;SDS011;63902;52.000;5.954;2023-05-07T01:52:59;11.32;;;7.47;;
67930;SDS011;63902;52.000;5.954;2023-05-07T01:54:03;9.55;;;6.82;;
67930;SDS011;63902;52.000;5.954;2023-05-07T01:55:04;10.48;;;7.53;;
67930;SDS011;63902;52.000;5.954;2023-05-07T01:56:06;14.82;;;6.55;;
67930;SDS011;63902;52.000;5.954;2023-05-07T01:57:07;9.48;;;7.50;;
67930;SDS011;63902;52.000;5.954;2023-05-07T01:58:07;14.68;;;7.40;;
67930;SDS011;63902;52.000;5.954;2023-05-07T01:59:07;9.43;;;7.20;;
67930;SDS011;63902;52.000;5.954;2023-05-07T02:00:08;11.05;;;7.40;;
67930;SDS011;63902;52.000;5.954;2023-05-07T02:01:09;11.73;;;7.53;;
67930;SDS011;63902;52.000;5.954;2023-05-07T02:02:10;9.15;;;7.15;;
67930;SDS011;63902;52.000;5.954;2023-05-07T02:03:10;11.98;;;7.93;;
67930;SDS011;63902;52.000;5.954;2023-05-07T02:04:11;12.32;;;8.02;;
67930;SDS011;63902;52.000;5.954;2023-05-07T02:05:11;10.48;;;7.25;;
67930;SDS011;63902;52.000;5.954;2023-05-07T02:06:12;14.90;;;7.72;;
67930;SDS011;63902;52.000;5.954;2023-05-07T02:07:12;8.95;;;6.72;;
67930;SDS011;63902;52.000;5.954;2023-05-07T02:08:13;10.40;;;7.63;;
67930;SDS011;63902;52.000;5.954;2023-05-07T02:09:14;11.52;;;7.07;;
67930;SDS011;63902;52.000;5.954;2023-05-07T02:10:15;8.52;;;6.82;;
67930;SDS011;63902;52.000;5.954;2023-05-07T02:11:16;9.02;;;6.75;;
67930;SDS011;63902;52.000;5.954;2023-05-07T02:12:16;9.85;;;7.53;;
67930;SDS011;63902;52.000;5.954;2023-05-07T02:13:16;9.20;;;6.50;;
67930;SDS011;63902;52.000;5.954;2023-05-07T02:14:17;10.52;;;7.68;;
67930;SDS011;63902;52.000;5.954;2023-05-07T02:15:17;16.25;;;7.97;;
67930;SDS011;63902;52.000;5.954;2023-05-07T02:16:18;11.75;;;7.78;;
67930;SDS011;63902;52.000;5.954;2023-05-07T02:17:18;10.75;;;7.35;;
67930;SDS011;63902;52.000;5.954;2023-05-07T02:18:19;12.80;;;8.25;;
67930;SDS011;63902;52.000;5.954;2023-05-07T02:19:19;13.43;;;8.80;;
67930;SDS011;63902;52.000;5.954;2023-05-07T02:20:20;12.10;;;7.90;;
67930;SDS011;63902;52.000;5.954;2023-05-07T02:21:20;11.63;;;7.75;;
67930;SDS011;63902;52.000;5.954;2023-05-07T02:22:21;8.88;;;7.15;;
67930;SDS011;63902;52.000;5.954;2023-05-07T02:23:21;11.70;;;8.18;;
67930;SDS011;63902;52.000;5.954;2023-05-07T02:24:23;12.88;;;8.07;;
67930;SDS011;63902;52.000;5.954;2023-05-07T02:25:24;10.30;;;7.90;;
67930;SDS011;63902;52.000;5.954;2023-05-07T02:26:24;11.50;;;7.55;;
67930;SDS011;63902;52.000;5.954;2023-05-07T02:27:25;10.23;;;7.72;;
67930;SDS011;63902;52.000;5.954;2023-05-07T02:28:25;10.10;;;7.70;;
67930;SDS011;63902;52.000;5.954;2023-05-07T02:29:26;9.70;;;7.72;;
67930;SDS011;63902;52.000;5.954;2023-05-07T02:30:26;13.15;;;8.10;;
67930;SDS011;63902;52.000;5.954;2023-05-07T02:31:27;13.00;;;8.60;;
67930;SDS011;63902;52.000;5.954;2023-05-07T02:32:27;12.48;;;8.52;;
67930;SDS011;63902;52.000;5.954;2023-05-07T02:33:28;10.00;;;6.80;;
67930;SDS011;63902;52.000;5.954;2023-05-07T02:34:28;10.18;;;7.68;;
67930;SDS011;63902;52.000;5.954;2023-05-07T02:35:29;11.15;;;8.20;;
67930;SDS011;63902;52.000;5.954;2023-05-07T02:36:29;14.00;;;8.35;;
67930;SDS011;63902;52.000;5.954;2023-05-07T02:37:30;11.57;;;7.70;;
67930;SDS011;63902;52.000;5.954;2023-05-07T02:38:30;13.15;;;7.47;;
67930;SDS011;63902;52.000;5.954;2023-05-07T02:39:32;10.30;;;7.70;;
67930;SDS011;63902;52.000;5.954;2023-05-07T02:40:32;8.85;;;7.25;;
67930;SDS011;63902;52.000;5.954;2023-05-07T02:41:33;11.82;;;7.93;;
67930;SDS011;63902;52.000;5.954;2023-05-07T02:42:33;11.77;;;8.02;;
67930;SDS011;63902;52.000;5.954;2023-05-07T02:43:34;11.15;;;7.47;;
67930;SDS011;63902;52.000;5.954;2023-05-07T02:44:34;9.32;;;7.28;;
67930;SDS011;63902;52.000;5.954;2023-05-07T02:45:35;11.55;;;7.20;;
67930;SDS011;63902;52.000;5.954;2023-05-07T02:46:35;10.35;;;8.43;;
67930;SDS011;63902;52.000;5.954;2023-05-07T02:47:36;9.70;;;7.45;;
67930;SDS011;63902;52.000;5.954;2023-05-07T02:48:36;14.45;;;8.02;;
67930;SDS011;63902;52.000;5.954;2023-05-07T02:49:37;10.07;;;7.32;;
67930;SDS011;63902;52.000;5.954;2023-05-07T02:50:37;10.13;;;7.10;;
67930;SDS011;63902;52.000;5.954;2023-05-07T02:51:38;12.07;;;7.57;;
67930;SDS011;63902;52.000;5.954;2023-05-07T02:52:38;11.82;;;7.50;;
67930;SDS011;63902;52.000;5.954;2023-05-07T02:53:39;10.98;;;7.88;;
67930;SDS011;63902;52.000;5.954;2023-05-07T02:54:41;12.10;;;7.88;;
67930;SDS011;63902;52.000;5.954;2023-05-07T02:55:41;10.23;;;8.02;;
67930;SDS011;63902;52.000;5.954;2023-05-07T02:56:42;11.43;;;7.68;;
67930;SDS011;63902;52.000;5.954;2023-05-07T02:57:42;10.63;;;7.78;;
67930;SDS011;63902;52.000;5.954;2023-05-07T02:58:42;13.02;;;7.80;;
67930;SDS011;63902;52.000;5.954;2023-05-07T02:59:43;12.05;;;7.65;;
67930;SDS011;63902;52.000;5.954;2023-05-07T03:00:43;11.52;;;6.95;;
67930;SDS011;63902;52.000;5.954;2023-05-07T03:01:44;11.70;;;7.88;;
67930;SDS011;63902;52.000;5.954;2023-05-07T03:02:45;10.63;;;7.57;;
67930;SDS011;63902;52.000;5.954;2023-05-07T03:03:45;9.73;;;7.97;;
67930;SDS011;63902;52.000;5.954;2023-05-07T03:04:46;10.55;;;7.63;;
67930;SDS011;63902;52.000;5.954;2023-05-07T03:05:46;12.77;;;8.18;;
67930;SDS011;63902;52.000;5.954;2023-05-07T03:06:47;16.67;;;8.07;;
67930;SDS011;63902;52.000;5.954;2023-05-07T03:07:47;12.75;;;8.00;;
67930;SDS011;63902;52.000;5.954;2023-05-07T03:08:48;13.32;;;8.38;;
67930;SDS011;63902;52.000;5.954;2023-05-07T03:09:49;11.32;;;7.57;;
67930;SDS011;63902;52.000;5.954;2023-05-07T03:10:50;11.40;;;7.85;;
67930;SDS011;63902;52.000;5.954;2023-05-07T03:11:51;10.68;;;7.50;;
67930;SDS011;63902;52.000;5.954;2023-05-07T03:12:51;10.45;;;7.60;;
67930;SDS011;63902;52.000;5.954;2023-05-07T03:13:52;10.02;;;7.50;;
67930;SDS011;63902;52.000;5.954;2023-05-07T03:14:52;12.43;;;7.88;;
67930;SDS011;63902;52.000;5.954;2023-05-07T03:15:53;10.73;;;8.27;;
67930;SDS011;63902;52.000;5.954;2023-05-07T03:16:53;13.27;;;8.68;;
67930;SDS011;63902;52.000;5.954;2023-05-07T03:17:54;13.32;;;8.18;;
67930;SDS011;63902;52.000;5.954;2023-05-07T03:18:55;13.27;;;8.50;;
67930;SDS011;63902;52.000;5.954;2023-05-07T03:19:55;19.45;;;7.50;;
67930;SDS011;63902;52.000;5.954;2023-05-07T03:20:55;11.95;;;7.85;;
67930;SDS011;63902;52.000;5.954;2023-05-07T03:21:57;12.40;;;8.27;;
67930;SDS011;63902;52.000;5.954;2023-05-07T03:22:57;13.80;;;8.30;;
67930;SDS011;63902;52.000;5.954;2023-05-07T03:23:58;10.40;;;7.63;;
67930;SDS011;63902;52.000;5.954;2023-05-07T03:25:00;12.57;;;8.00;;
67930;SDS011;63902;52.000;5.954;2023-05-07T03:26:00;12.15;;;8.73;;
67930;SDS011;63902;52.000;5.954;2023-05-07T03:27:01;18.08;;;8.07;;
67930;SDS011;63902;52.000;5.954;2023-05-07T03:28:01;18.80;;;7.68;;
67930;SDS011;63902;52.000;5.954;2023-05-07T03:29:02;13.07;;;8.18;;
67930;SDS011;63902;52.000;5.954;2023-05-07T03:30:02;14.90;;;8.52;;
67930;SDS011;63902;52.000;5.954;2023-05-07T03:31:03;14.98;;;8.15;;
67930;SDS011;63902;52.000;5.954;2023-05-07T03:32:04;11.23;;;7.95;;
67930;SDS011;63902;52.000;5.954;2023-05-07T03:33:04;13.25;;;7.95;;
67930;SDS011;63902;52.000;5.954;2023-05-07T03:34:05;16.27;;;8.77;;
67930;SDS011;63902;52.000;5.954;2023-05-07T03:35:06;14.68;;;8.35;;
67930;SDS011;63902;52.000;5.954;2023-05-07T03:36:07;14.45;;;8.00;;
67930;SDS011;63902;52.000;5.954;2023-05-07T03:37:07;11.10;;;7.90;;
67930;SDS011;63902;52.000;5.954;2023-05-07T03:38:08;10.60;;;7.97;;
67930;SDS011;63902;52.000;5.954;2023-05-07T03:39:08;13.63;;;8.50;;
67930;SDS011;63902;52.000;5.954;2023-05-07T03:40:11;11.13;;;7.93;;
67930;SDS011;63902;52.000;5.954;2023-05-07T03:41:11;13.43;;;8.77;;
67930;SDS011;63902;52.000;5.954;2023-05-07T03:42:12;12.07;;;8.07;;
67930;SDS011;63902;52.000;5.954;2023-05-07T03:43:13;13.30;;;9.63;;
67930;SDS011;63902;52.000;5.954;2023-05-07T03:44:13;13.85;;;9.45;;
67930;SDS011;63902;52.000;5.954;2023-05-07T03:45:14;13.70;;;9.65;;
67930;SDS011;63902;52.000;5.954;2023-05-07T03:46:14;13.65;;;9.20;;
67930;SDS011;63902;52.000;5.954;2023-05-07T03:47:15;15.20;;;9.32;;
67930;SDS011;63902;52.000;5.954;2023-05-07T03:48:15;17.45;;;9.35;;
67930;SDS011;63902;52.000;5.954;2023-05-07T03:49:16;15.43;;;9.30;;
67930;SDS011;63902;52.000;5.954;2023-05-07T03:50:16;17.52;;;9.80;;
67930;SDS011;63902;52.000;5.954;2023-05-07T03:51:16;17.13;;;9.27;;
67930;SDS011;63902;52.000;5.954;2023-05-07T03:52:17;13.75;;;10.45;;
67930;SDS011;63902;52.000;5.954;2023-05-07T03:53:17;13.95;;;9.80;;
67930;SDS011;63902;52.000;5.954;2023-05-07T03:54:18;12.93;;;9.35;;
67930;SDS011;63902;52.000;5.954;2023-05-07T03:55:20;17.83;;;10.27;;
67930;SDS011;63902;52.000;5.954;2023-05-07T03:56:21;15.50;;;10.43;;
67930;SDS011;63902;52.000;5.954;2023-05-07T03:57:21;13.23;;;10.52;;
67930;SDS011;63902;52.000;5.954;2023-05-07T03:58:22;15.98;;;9.85;;
67930;SDS011;63902;52.000;5.954;2023-05-07T03:59:22;16.00;;;10.45;;
67930;SDS011;63902;52.000;5.954;2023-05-07T04:00:23;15.52;;;10.65;;
67930;SDS011;63902;52.000;5.954;2023-05-07T04:01:23;14.27;;;10.55;;
67930;SDS011;63902;52.000;5.954;2023-05-07T04:02:24;12.73;;;9.95;;
67930;SDS011;63902;52.000;5.954;2023-05-07T04:03:24;12.38;;;10.27;;
67930;SDS011;63902;52.000;5.954;2023-05-07T04:04:25;14.10;;;10.40;;
67930;SDS011;63902;52.000;5.954;2023-05-07T04:05:26;13.52;;;10.18;;
67930;SDS011;63902;52.000;5.954;2023-05-07T04:06:26;15.50;;;10.05;;
67930;SDS011;63902;52.000;5.954;2023-05-07T04:07:27;15.55;;;10.65;;
67930;SDS011;63902;52.000;5.954;2023-05-07T04:08:27;14.25;;;10.43;;
67930;SDS011;63902;52.000;5.954;2023-05-07T04:09:28;16.30;;;11.23;;
67930;SDS011;63902;52.000;5.954;2023-05-07T04:10:30;14.48;;;10.77;;
67930;SDS011;63902;52.000;5.954;2023-05-07T04:11:30;16.33;;;11.07;;
67930;SDS011;63902;52.000;5.954;2023-05-07T04:12:31;17.63;;;10.52;;
67930;SDS011;63902;52.000;5.954;2023-05-07T04:13:31;15.55;;;10.57;;
67930;SDS011;63902;52.000;5.954;2023-05-07T04:14:32;15.98;;;10.57;;
67930;SDS011;63902;52.000;5.954;2023-05-07T04:15:32;15.25;;;10.70;;
67930;SDS011;63902;52.000;5.954;2023-05-07T04:16:34;18.38;;;11.45;;
67930;SDS011;63902;52.000;5.954;2023-05-07T04:17:34;13.40;;;11.00;;
67930;SDS011;63902;52.000;5.954;2023-05-07T04:18:35;14.68;;;10.95;;
67930;SDS011;63902;52.000;5.954;2023-05-07T04:19:35;16.90;;;12.15;;
67930;SDS011;63902;52.000;5.954;2023-05-07T04:20:36;12.93;;;10.65;;
67930;SDS011;63902;52.000;5.954;2023-05-07T04:21:37;15.95;;;11.13;;
67930;SDS011;63902;52.000;5.954;2023-05-07T04:22:37;16.15;;;11.15;;
67930;SDS011;63902;52.000;5.954;2023-05-07T04:23:38;18.85;;;12.45;;
67930;SDS011;63902;52.000;5.954;2023-05-07T04:24:38;15.23;;;11.27;;
67930;SDS011;63902;52.000;5.954;2023-05-07T04:25:40;15.50;;;11.88;;
67930;SDS011;63902;52.000;5.954;2023-05-07T04:26:40;17.48;;;11.40;;
67930;SDS011;63902;52.000;5.954;2023-05-07T04:27:41;13.75;;;11.85;;
67930;SDS011;63902;52.000;5.954;2023-05-07T04:28:41;15.52;;;11.10;;
67930;SDS011;63902;52.000;5.954;2023-05-07T04:29:42;18.63;;;11.15;;
67930;SDS011;63902;52.000;5.954;2023-05-07T04:30:42;13.70;;;11.40;;
67930;SDS011;63902;52.000;5.954;2023-05-07T04:31:43;13.45;;;11.48;;
67930;SDS011;63902;52.000;5.954;2023-05-07T04:32:43;15.00;;;11.85;;
67930;SDS011;63902;52.000;5.954;2023-05-07T04:33:44;15.05;;;11.82;;
67930;SDS011;63902;52.000;5.954;2023-05-07T04:34:44;14.75;;;11.45;;
67930;SDS011;63902;52.000;5.954;2023-05-07T04:35:45;15.88;;;11.63;;
67930;SDS011;63902;52.000;5.954;2023-05-07T04:36:45;14.15;;;11.60;;
67930;SDS011;63902;52.000;5.954;2023-05-07T04:37:46;16.48;;;11.57;;
67930;SDS011;63902;52.000;5.954;2023-05-07T04:38:46;18.15;;;11.77;;
67930;SDS011;63902;52.000;5.954;2023-05-07T04:39:47;15.13;;;11.98;;
67930;SDS011;63902;52.000;5.954;2023-05-07T04:40:48;13.75;;;11.52;;
67930;SDS011;63902;52.000;5.954;2023-05-07T04:41:49;15.93;;;12.05;;
67930;SDS011;63902;52.000;5.954;2023-05-07T04:42:49;16.40;;;12.18;;
67930;SDS011;63902;52.000;5.954;2023-05-07T04:43:50;14.32;;;11.30;;
67930;SDS011;63902;52.000;5.954;2023-05-07T04:44:52;15.07;;;11.82;;
67930;SDS011;63902;52.000;5.954;2023-05-07T04:45:53;14.65;;;11.43;;
67930;SDS011;63902;52.000;5.954;2023-05-07T04:46:53;15.88;;;11.40;;
67930;SDS011;63902;52.000;5.954;2023-05-07T04:47:54;15.45;;;11.25;;
67930;SDS011;63902;52.000;5.954;2023-05-07T04:48:54;15.27;;;12.27;;
67930;SDS011;63902;52.000;5.954;2023-05-07T04:49:55;13.23;;;11.00;;
67930;SDS011;63902;52.000;5.954;2023-05-07T04:50:55;14.38;;;12.00;;
67930;SDS011;63902;52.000;5.954;2023-05-07T04:51:56;17.58;;;11.55;;
67930;SDS011;63902;52.000;5.954;2023-05-07T04:52:56;16.52;;;11.95;;
67930;SDS011;63902;52.000;5.954;2023-05-07T04:53:57;21.35;;;11.90;;
67930;SDS011;63902;52.000;5.954;2023-05-07T04:54:58;14.18;;;11.18;;
67930;SDS011;63902;52.000;5.954;2023-05-07T04:56:00;14.82;;;11.55;;
67930;SDS011;63902;52.000;5.954;2023-05-07T04:57:02;16.63;;;12.35;;
67930;SDS011;63902;52.000;5.954;2023-05-07T04:58:03;14.52;;;11.63;;
67930;SDS011;63902;52.000;5.954;2023-05-07T04:59:04;17.48;;;12.98;;
67930;SDS011;63902;52.000;5.954;2023-05-07T05:00:05;14.18;;;12.00;;
67930;SDS011;63902;52.000;5.954;2023-05-07T05:01:06;14.65;;;11.48;;
67930;SDS011;63902;52.000;5.954;2023-05-07T05:02:06;17.42;;;12.20;;
67930;SDS011;63902;52.000;5.954;2023-05-07T05:03:07;17.33;;;11.52;;
67930;SDS011;63902;52.000;5.954;2023-05-07T05:04:08;18.48;;;11.98;;
67930;SDS011;63902;52.000;5.954;2023-05-07T05:05:08;15.23;;;11.77;;
67930;SDS011;63902;52.000;5.954;2023-05-07T05:06:10;15.93;;;11.52;;
67930;SDS011;63902;52.000;5.954;2023-05-07T05:07:10;14.40;;;11.90;;
67930;SDS011;63902;52.000;5.954;2023-05-07T05:08:11;17.85;;;11.75;;
67930;SDS011;63902;52.000;5.954;2023-05-07T05:09:11;17.80;;;13.02;;
67930;SDS011;63902;52.000;5.954;2023-05-07T05:10:12;17.88;;;12.15;;
67930;SDS011;63902;52.000;5.954;2023-05-07T05:11:14;16.73;;;12.43;;
67930;SDS011;63902;52.000;5.954;2023-05-07T05:12:14;15.88;;;11.77;;
67930;SDS011;63902;52.000;5.954;2023-05-07T05:13:15;17.38;;;12.18;;
67930;SDS011;63902;52.000;5.954;2023-05-07T05:14:15;13.60;;;11.15;;
67930;SDS011;63902;52.000;5.954;2023-05-07T05:15:16;14.30;;;12.13;;
67930;SDS011;63902;52.000;5.954;2023-05-07T05:16:16;17.00;;;11.73;;
67930;SDS011;63902;52.000;5.954;2023-05-07T05:17:17;16.98;;;11.63;;
67930;SDS011;63902;52.000;5.954;2023-05-07T05:18:17;13.77;;;11.07;;
67930;SDS011;63902;52.000;5.954;2023-05-07T05:19:17;17.92;;;12.20;;
67930;SDS011;63902;52.000;5.954;2023-05-07T05:20:18;16.92;;;11.75;;
67930;SDS011;63902;52.000;5.954;2023-05-07T05:21:18;15.52;;;12.55;;
67930;SDS011;63902;52.000;5.954;2023-05-07T05:22:19;15.55;;;12.05;;
67930;SDS011;63902;52.000;5.954;2023-05-07T05:23:19;17.70;;;12.82;;
67930;SDS011;63902;52.000;5.954;2023-05-07T05:24:20;18.10;;;12.23;;
67930;SDS011;63902;52.000;5.954;2023-05-07T05:25:20;14.95;;;11.63;;
67930;SDS011;63902;52.000;5.954;2023-05-07T05:26:22;15.18;;;11.75;;
67930;SDS011;63902;52.000;5.954;2023-05-07T05:27:23;18.88;;;11.60;;
67930;SDS011;63902;52.000;5.954;2023-05-07T05:28:24;16.10;;;11.68;;
67930;SDS011;63902;52.000;5.954;2023-05-07T05:29:24;17.52;;;12.35;;
67930;SDS011;63902;52.000;5.954;2023-05-07T05:30:25;18.23;;;12.00;;
67930;SDS011;63902;52.000;5.954;2023-05-07T05:31:25;24.33;;;11.95;;
67930;SDS011;63902;52.000;5.954;2023-05-07T05:32:26;17.17;;;12.10;;
67930;SDS011;63902;52.000;5.954;2023-05-07T05:33:26;17.45;;;12.50;;
67930;SDS011;63902;52.000;5.954;2023-05-07T05:34:27;15.73;;;11.75;;
67930;SDS011;63902;52.000;5.954;2023-05-07T05:35:29;14.93;;;11.90;;
67930;SDS011;63902;52.000;5.954;2023-05-07T05:36:29;18.63;;;11.93;;
67930;SDS011;63902;52.000;5.954;2023-05-07T05:37:30;13.88;;;12.02;;
67930;SDS011;63902;52.000;5.954;2023-05-07T05:38:30;15.30;;;12.02;;
67930;SDS011;63902;52.000;5.954;2023-05-07T05:39:31;15.57;;;11.82;;
67930;SDS011;63902;52.000;5.954;2023-05-07T05:40:31;14.80;;;12.10;;
67930;SDS011;63902;52.000;5.954;2023-05-07T05:41:33;13.63;;;11.35;;
67930;SDS011;63902;52.000;5.954;2023-05-07T05:42:34;19.25;;;12.32;;
67930;SDS011;63902;52.000;5.954;2023-05-07T05:43:34;17.15;;;12.30;;
67930;SDS011;63902;52.000;5.954;2023-05-07T05:44:34;14.50;;;12.07;;
67930;SDS011;63902;52.000;5.954;2023-05-07T05:45:35;15.93;;;12.15;;
67930;SDS011;63902;52.000;5.954;2023-05-07T05:46:35;14.57;;;12.18;;
67930;SDS011;63902;52.000;5.954;2023-05-07T05:47:36;14.60;;;11.75;;
67930;SDS011;63902;52.000;5.954;2023-05-07T05:48:37;16.35;;;11.57;;
67930;SDS011;63902;52.000;5.954;2023-05-07T05:49:38;18.33;;;12.10;;
67930;SDS011;63902;52.000;5.954;2023-05-07T05:50:38;15.75;;;11.82;;
67930;SDS011;63902;52.000;5.954;2023-05-07T05:51:38;17.95;;;12.43;;
67930;SDS011;63902;52.000;5.954;2023-05-07T05:52:39;16.70;;;12.07;;
67930;SDS011;63902;52.000;5.954;2023-05-07T05:53:39;14.68;;;11.88;;
67930;SDS011;63902;52.000;5.954;2023-05-07T05:54:40;13.45;;;11.40;;
67930;SDS011;63902;52.000;5.954;2023-05-07T05:55:40;16.67;;;11.90;;
67930;SDS011;63902;52.000;5.954;2023-05-07T05:56:43;15.80;;;11.30;;
67930;SDS011;63902;52.000;5.954;2023-05-07T05:57:43;19.70;;;11.98;;
67930;SDS011;63902;52.000;5.954;2023-05-07T05:58:44;14.43;;;11.38;;
67930;SDS011;63902;52.000;5.954;2023-05-07T05:59:44;14.70;;;11.80;;
67930;SDS011;63902;52.000;5.954;2023-05-07T06:00:45;15.40;;;12.05;;